sensor_id;sensor_type;location;lat;lon;timestamp;P1;durP1;ratioP1;P2;durP2;ratioP2
52067;SDS011;60237;52.338;21.228;2022-10-31T00:00:25;94.95;;;36.53;;
52067;SDS011;60237;52.338;21.228;2022-10-31T00:02:51;99.15;;;38.83;;
52067;SDS011;60237;52.338;21.228;2022-10-31T00:05:18;87.82;;;33.40;;
52067;SDS011;60237;52.338;21.228;2022-10-31T00:07:45;90.90;;;37.75;;
52067;SDS011;60237;52.338;21.228;2022-10-31T00:10:11;100.57;;;38.92;;
52067;SDS011;60237;52.338;21.228;2022-10-31T00:12:37;92.90;;;35.20;;
52067;SDS011;60237;52.338;21.228;2022-10-31T00:15:04;86.22;;;37.28;;
52067;SDS011;60237;52.338;21.228;2022-10-31T00:17:31;87.75;;;39.53;;
52067;SDS011;60237;52.338;21.228;2022-10-31T00:19:57;89.78;;;34.08;;
52067;SDS011;60237;52.338;21.228;2022-10-31T00:22:24;98.00;;;31.75;;
52067;SDS011;60237;52.338;21.228;2022-10-31T00:24:51;76.18;;;35.03;;
52067;SDS011;60237;52.338;21.228;2022-10-31T00:27:17;77.35;;;32.58;;
52067;SDS011;60237;52.338;21.228;2022-10-31T00:29:44;80.53;;;32.65;;
52067;SDS011;60237;52.338;21.228;2022-10-31T00:32:11;81.68;;;33.15;;
52067;SDS011;60237;52.338;21.228;2022-10-31T00:34:38;96.78;;;36.45;;
52067;SDS011;60237;52.338;21.228;2022-10-31T00:37:04;72.60;;;34.70;;
52067;SDS011;60237;52.338;21.228;2022-10-31T00:39:31;72.78;;;34.70;;
52067;SDS011;60237;52.338;21.228;2022-10-31T00:41:57;104.10;;;36.60;;
52067;SDS011;60237;52.338;21.228;2022-10-31T00:44:24;85.43;;;34.45;;
52067;SDS011;60237;52.338;21.228;2022-10-31T00:46:51;77.30;;;31.95;;
52067;SDS011;60237;52.338;21.228;2022-10-31T00:49:20;76.43;;;32.10;;
52067;SDS011;60237;52.338;21.228;2022-10-31T00:51:47;86.88;;;33.78;;
52067;SDS011;60237;52.338;21.228;2022-10-31T00:54:13;73.82;;;29.02;;
52067;SDS011;60237;52.338;21.228;2022-10-31T00:56:40;73.82;;;30.23;;
52067;SDS011;60237;52.338;21.228;2022-10-31T00:59:07;70.13;;;29.20;;
52067;SDS011;60237;52.338;21.228;2022-10-31T01:01:34;76.50;;;29.85;;
52067;SDS011;60237;52.338;21.228;2022-10-31T01:04:00;83.75;;;30.75;;
52067;SDS011;60237;52.338;21.228;2022-10-31T01:06:27;72.72;;;32.88;;
52067;SDS011;60237;52.338;21.228;2022-10-31T01:08:55;68.15;;;30.27;;
52067;SDS011;60237;52.338;21.228;2022-10-31T01:11:22;87.15;;;33.88;;
52067;SDS011;60237;52.338;21.228;2022-10-31T01:13:50;78.60;;;29.40;;
52067;SDS011;60237;52.338;21.228;2022-10-31T01:16:18;65.78;;;28.10;;
52067;SDS011;60237;52.338;21.228;2022-10-31T01:18:45;72.10;;;30.40;;
52067;SDS011;60237;52.338;21.228;2022-10-31T01:21:19;68.40;;;27.08;;
52067;SDS011;60237;52.338;21.228;2022-10-31T01:23:47;71.93;;;28.38;;
52067;SDS011;60237;52.338;21.228;2022-10-31T01:26:15;93.22;;;30.02;;
52067;SDS011;60237;52.338;21.228;2022-10-31T01:31:13;62.28;;;25.67;;
52067;SDS011;60237;52.338;21.228;2022-10-31T01:33:40;66.13;;;28.38;;
52067;SDS011;60237;52.338;21.228;2022-10-31T01:38:42;66.55;;;27.05;;
52067;SDS011;60237;52.338;21.228;2022-10-31T01:41:09;53.90;;;24.17;;
52067;SDS011;60237;52.338;21.228;2022-10-31T01:46:23;83.55;;;29.13;;
52067;SDS011;60237;52.338;21.228;2022-10-31T01:48:51;67.32;;;30.55;;
52067;SDS011;60237;52.338;21.228;2022-10-31T01:51:19;86.72;;;28.98;;
52067;SDS011;60237;52.338;21.228;2022-10-31T01:53:46;65.80;;;27.02;;
52067;SDS011;60237;52.338;21.228;2022-10-31T01:56:14;73.90;;;28.63;;
52067;SDS011;60237;52.338;21.228;2022-10-31T01:58:41;84.75;;;28.23;;
52067;SDS011;60237;52.338;21.228;2022-10-31T02:01:08;66.70;;;26.55;;
52067;SDS011;60237;52.338;21.228;2022-10-31T02:03:35;57.47;;;24.27;;
52067;SDS011;60237;52.338;21.228;2022-10-31T02:09:05;50.75;;;23.15;;
52067;SDS011;60237;52.338;21.228;2022-10-31T02:11:32;62.55;;;25.80;;
52067;SDS011;60237;52.338;21.228;2022-10-31T02:14:00;52.13;;;24.27;;
52067;SDS011;60237;52.338;21.228;2022-10-31T02:16:27;70.35;;;26.65;;
52067;SDS011;60237;52.338;21.228;2022-10-31T02:18:54;80.65;;;28.15;;
52067;SDS011;60237;52.338;21.228;2022-10-31T02:37:01;111.93;;;37.45;;
52067;SDS011;60237;52.338;21.228;2022-10-31T02:39:52;148.05;;;40.05;;
52067;SDS011;60237;52.338;21.228;2022-10-31T02:42:48;120.88;;;34.67;;
52067;SDS011;60237;52.338;21.228;2022-10-31T02:45:20;191.50;;;46.45;;
52067;SDS011;60237;52.338;21.228;2022-10-31T02:47:48;188.80;;;44.67;;
52067;SDS011;60237;52.338;21.228;2022-10-31T02:50:21;130.18;;;40.35;;
52067;SDS011;60237;52.338;21.228;2022-10-31T02:52:52;128.35;;;41.75;;
52067;SDS011;60237;52.338;21.228;2022-10-31T02:58:00;104.95;;;37.97;;
52067;SDS011;60237;52.338;21.228;2022-10-31T03:00:29;123.70;;;37.70;;
52067;SDS011;60237;52.338;21.228;2022-10-31T03:03:07;94.47;;;33.03;;
52067;SDS011;60237;52.338;21.228;2022-10-31T03:08:21;93.95;;;31.02;;
52067;SDS011;60237;52.338;21.228;2022-10-31T03:10:56;82.32;;;30.10;;
52067;SDS011;60237;52.338;21.228;2022-10-31T03:16:05;83.30;;;33.50;;
52067;SDS011;60237;52.338;21.228;2022-10-31T03:18:34;101.97;;;33.60;;
52067;SDS011;60237;52.338;21.228;2022-10-31T03:21:14;117.82;;;38.42;;
52067;SDS011;60237;52.338;21.228;2022-10-31T03:23:43;102.82;;;35.97;;
52067;SDS011;60237;52.338;21.228;2022-10-31T03:26:17;109.35;;;34.50;;
52067;SDS011;60237;52.338;21.228;2022-10-31T03:28:50;98.65;;;33.22;;
52067;SDS011;60237;52.338;21.228;2022-10-31T03:31:18;116.88;;;35.28;;
52067;SDS011;60237;52.338;21.228;2022-10-31T03:33:47;109.88;;;36.40;;
52067;SDS011;60237;52.338;21.228;2022-10-31T03:36:14;111.18;;;38.30;;
52067;SDS011;60237;52.338;21.228;2022-10-31T03:38:42;108.88;;;34.42;;
52067;SDS011;60237;52.338;21.228;2022-10-31T03:41:20;95.88;;;35.17;;
52067;SDS011;60237;52.338;21.228;2022-10-31T03:43:50;107.90;;;34.85;;
52067;SDS011;60237;52.338;21.228;2022-10-31T03:46:17;138.55;;;39.95;;
52067;SDS011;60237;52.338;21.228;2022-10-31T03:48:44;95.38;;;34.42;;
52067;SDS011;60237;52.338;21.228;2022-10-31T03:51:54;175.35;;;49.15;;
52067;SDS011;60237;52.338;21.228;2022-10-31T03:54:03;108.88;;;37.58;;
52067;SDS011;60237;52.338;21.228;2022-10-31T03:56:35;156.02;;;41.47;;
52067;SDS011;60237;52.338;21.228;2022-10-31T03:59:07;102.03;;;39.22;;
52067;SDS011;60237;52.338;21.228;2022-10-31T04:01:37;141.93;;;44.05;;
52067;SDS011;60237;52.338;21.228;2022-10-31T04:04:05;177.63;;;50.58;;
52067;SDS011;60237;52.338;21.228;2022-10-31T04:06:33;225.13;;;52.60;;
52067;SDS011;60237;52.338;21.228;2022-10-31T04:09:02;194.45;;;51.13;;
52067;SDS011;60237;52.338;21.228;2022-10-31T04:11:31;144.52;;;45.65;;
52067;SDS011;60237;52.338;21.228;2022-10-31T04:14:17;233.80;;;53.25;;
52067;SDS011;60237;52.338;21.228;2022-10-31T04:16:44;235.45;;;55.35;;
52067;SDS011;60237;52.338;21.228;2022-10-31T04:19:11;388.90;;;73.95;;
52067;SDS011;60237;52.338;21.228;2022-10-31T04:21:38;162.80;;;50.00;;
52067;SDS011;60237;52.338;21.228;2022-10-31T04:24:05;171.57;;;49.50;;
52067;SDS011;60237;52.338;21.228;2022-10-31T04:26:32;154.73;;;47.53;;
52067;SDS011;60237;52.338;21.228;2022-10-31T04:28:58;317.77;;;63.17;;
52067;SDS011;60237;52.338;21.228;2022-10-31T04:31:26;224.90;;;58.20;;
52067;SDS011;60237;52.338;21.228;2022-10-31T04:33:53;210.50;;;55.13;;
52067;SDS011;60237;52.338;21.228;2022-10-31T04:36:20;305.23;;;66.90;;
52067;SDS011;60237;52.338;21.228;2022-10-31T04:38:47;181.60;;;53.45;;
52067;SDS011;60237;52.338;21.228;2022-10-31T04:41:31;143.57;;;51.88;;
52067;SDS011;60237;52.338;21.228;2022-10-31T04:44:00;147.57;;;50.83;;
52067;SDS011;60237;52.338;21.228;2022-10-31T04:46:27;114.18;;;43.42;;
52067;SDS011;60237;52.338;21.228;2022-10-31T04:48:54;99.80;;;35.42;;
52067;SDS011;60237;52.338;21.228;2022-10-31T04:51:22;132.07;;;41.95;;
52067;SDS011;60237;52.338;21.228;2022-10-31T04:53:49;87.07;;;33.65;;
52067;SDS011;60237;52.338;21.228;2022-10-31T04:56:31;94.82;;;36.67;;
52067;SDS011;60237;52.338;21.228;2022-10-31T04:59:01;87.95;;;33.95;;
52067;SDS011;60237;52.338;21.228;2022-10-31T05:01:37;83.82;;;32.95;;
52067;SDS011;60237;52.338;21.228;2022-10-31T05:04:04;94.97;;;35.10;;
52067;SDS011;60237;52.338;21.228;2022-10-31T05:06:31;101.93;;;37.35;;
52067;SDS011;60237;52.338;21.228;2022-10-31T05:08:58;85.70;;;33.95;;
52067;SDS011;60237;52.338;21.228;2022-10-31T05:11:25;114.18;;;38.03;;
52067;SDS011;60237;52.338;21.228;2022-10-31T05:13:54;107.78;;;39.00;;
52067;SDS011;60237;52.338;21.228;2022-10-31T05:16:39;111.82;;;40.65;;
52067;SDS011;60237;52.338;21.228;2022-10-31T05:19:24;123.65;;;41.30;;
52067;SDS011;60237;52.338;21.228;2022-10-31T05:22:19;129.45;;;41.63;;
52067;SDS011;60237;52.338;21.228;2022-10-31T05:24:45;89.03;;;35.65;;
52067;SDS011;60237;52.338;21.228;2022-10-31T05:27:12;110.88;;;39.22;;
52067;SDS011;60237;52.338;21.228;2022-10-31T05:29:39;97.30;;;39.20;;
52067;SDS011;60237;52.338;21.228;2022-10-31T05:32:05;102.05;;;35.92;;
52067;SDS011;60237;52.338;21.228;2022-10-31T05:34:50;91.82;;;34.88;;
52067;SDS011;60237;52.338;21.228;2022-10-31T05:37:35;102.38;;;38.35;;
52067;SDS011;60237;52.338;21.228;2022-10-31T05:40:03;115.30;;;42.22;;
52067;SDS011;60237;52.338;21.228;2022-10-31T05:42:34;105.43;;;39.60;;
52067;SDS011;60237;52.338;21.228;2022-10-31T05:45:01;121.55;;;41.55;;
52067;SDS011;60237;52.338;21.228;2022-10-31T05:47:49;118.18;;;39.28;;
52067;SDS011;60237;52.338;21.228;2022-10-31T05:50:36;136.03;;;43.10;;
52067;SDS011;60237;52.338;21.228;2022-10-31T05:53:08;105.47;;;38.63;;
52067;SDS011;60237;52.338;21.228;2022-10-31T05:55:36;110.00;;;36.10;;
52067;SDS011;60237;52.338;21.228;2022-10-31T05:58:09;102.22;;;36.50;;
52067;SDS011;60237;52.338;21.228;2022-10-31T06:00:36;120.32;;;38.63;;
52067;SDS011;60237;52.338;21.228;2022-10-31T06:03:07;126.85;;;44.15;;
52067;SDS011;60237;52.338;21.228;2022-10-31T06:05:52;92.18;;;36.97;;
52067;SDS011;60237;52.338;21.228;2022-10-31T06:08:24;92.80;;;36.55;;
52067;SDS011;60237;52.338;21.228;2022-10-31T06:10:51;101.10;;;36.30;;
52067;SDS011;60237;52.338;21.228;2022-10-31T06:13:29;110.25;;;37.42;;
52067;SDS011;60237;52.338;21.228;2022-10-31T06:16:04;101.93;;;38.00;;
52067;SDS011;60237;52.338;21.228;2022-10-31T06:18:35;120.88;;;38.88;;
52067;SDS011;60237;52.338;21.228;2022-10-31T06:21:01;76.57;;;33.17;;
52067;SDS011;60237;52.338;21.228;2022-10-31T06:23:28;99.88;;;36.47;;
52067;SDS011;60237;52.338;21.228;2022-10-31T06:26:14;102.40;;;33.05;;
52067;SDS011;60237;52.338;21.228;2022-10-31T06:28:41;99.68;;;32.30;;
52067;SDS011;60237;52.338;21.228;2022-10-31T06:31:16;99.93;;;30.70;;
52067;SDS011;60237;52.338;21.228;2022-10-31T06:33:42;132.80;;;37.03;;
52067;SDS011;60237;52.338;21.228;2022-10-31T06:36:09;85.70;;;29.25;;
52067;SDS011;60237;52.338;21.228;2022-10-31T06:38:36;116.70;;;35.67;;
52067;SDS011;60237;52.338;21.228;2022-10-31T06:41:06;237.98;;;42.70;;
52067;SDS011;60237;52.338;21.228;2022-10-31T06:43:42;129.05;;;34.90;;
52067;SDS011;60237;52.338;21.228;2022-10-31T06:46:28;253.63;;;47.88;;
52067;SDS011;60237;52.338;21.228;2022-10-31T06:49:06;192.88;;;43.65;;
52067;SDS011;60237;52.338;21.228;2022-10-31T06:51:40;136.50;;;31.95;;
52067;SDS011;60237;52.338;21.228;2022-10-31T06:54:07;126.22;;;35.45;;
52067;SDS011;60237;52.338;21.228;2022-10-31T06:56:35;122.45;;;32.38;;
52067;SDS011;60237;52.338;21.228;2022-10-31T06:59:02;96.22;;;31.13;;
52067;SDS011;60237;52.338;21.228;2022-10-31T07:01:58;108.22;;;33.97;;
52067;SDS011;60237;52.338;21.228;2022-10-31T07:04:25;97.05;;;34.28;;
52067;SDS011;60237;52.338;21.228;2022-10-31T07:06:52;99.13;;;35.90;;
52067;SDS011;60237;52.338;21.228;2022-10-31T07:09:19;104.40;;;36.35;;
52067;SDS011;60237;52.338;21.228;2022-10-31T07:11:46;92.97;;;32.63;;
52067;SDS011;60237;52.338;21.228;2022-10-31T07:14:13;133.95;;;41.38;;
52067;SDS011;60237;52.338;21.228;2022-10-31T07:16:40;110.53;;;36.67;;
52067;SDS011;60237;52.338;21.228;2022-10-31T07:19:07;88.90;;;31.10;;
52067;SDS011;60237;52.338;21.228;2022-10-31T07:21:33;96.90;;;32.55;;
52067;SDS011;60237;52.338;21.228;2022-10-31T07:24:00;72.05;;;28.92;;
52067;SDS011;60237;52.338;21.228;2022-10-31T07:26:42;78.20;;;27.77;;
52067;SDS011;60237;52.338;21.228;2022-10-31T07:29:09;105.50;;;32.20;;
52067;SDS011;60237;52.338;21.228;2022-10-31T07:31:36;82.55;;;29.55;;
52067;SDS011;60237;52.338;21.228;2022-10-31T07:34:09;77.88;;;28.48;;
52067;SDS011;60237;52.338;21.228;2022-10-31T07:36:54;60.08;;;23.33;;
52067;SDS011;60237;52.338;21.228;2022-10-31T07:39:21;65.82;;;21.70;;
52067;SDS011;60237;52.338;21.228;2022-10-31T07:41:47;53.70;;;20.70;;
52067;SDS011;60237;52.338;21.228;2022-10-31T07:44:17;62.38;;;21.92;;
52067;SDS011;60237;52.338;21.228;2022-10-31T07:47:22;49.55;;;19.35;;
52067;SDS011;60237;52.338;21.228;2022-10-31T07:50:07;61.85;;;22.02;;
52067;SDS011;60237;52.338;21.228;2022-10-31T07:53:04;49.60;;;19.70;;
52067;SDS011;60237;52.338;21.228;2022-10-31T07:55:47;57.38;;;20.08;;
52067;SDS011;60237;52.338;21.228;2022-10-31T07:58:14;65.35;;;20.55;;
52067;SDS011;60237;52.338;21.228;2022-10-31T08:00:42;52.63;;;19.42;;
52067;SDS011;60237;52.338;21.228;2022-10-31T08:03:14;47.30;;;17.83;;
52067;SDS011;60237;52.338;21.228;2022-10-31T08:05:59;54.72;;;20.15;;
52067;SDS011;60237;52.338;21.228;2022-10-31T08:09:01;51.65;;;19.58;;
52067;SDS011;60237;52.338;21.228;2022-10-31T08:11:27;42.88;;;18.50;;
52067;SDS011;60237;52.338;21.228;2022-10-31T08:13:54;50.92;;;19.08;;
52067;SDS011;60237;52.338;21.228;2022-10-31T08:16:20;63.00;;;20.52;;
52067;SDS011;60237;52.338;21.228;2022-10-31T08:18:52;46.13;;;17.55;;
52067;SDS011;60237;52.338;21.228;2022-10-31T08:21:22;56.88;;;18.67;;
52067;SDS011;60237;52.338;21.228;2022-10-31T08:23:48;55.28;;;17.77;;
52067;SDS011;60237;52.338;21.228;2022-10-31T08:26:17;46.83;;;17.92;;
52067;SDS011;60237;52.338;21.228;2022-10-31T08:28:44;52.85;;;17.83;;
52067;SDS011;60237;52.338;21.228;2022-10-31T08:31:12;65.45;;;19.73;;
52067;SDS011;60237;52.338;21.228;2022-10-31T08:33:38;49.40;;;16.98;;
52067;SDS011;60237;52.338;21.228;2022-10-31T08:36:23;72.10;;;19.98;;
52067;SDS011;60237;52.338;21.228;2022-10-31T08:38:58;41.30;;;17.52;;
52067;SDS011;60237;52.338;21.228;2022-10-31T08:41:28;40.03;;;15.95;;
52067;SDS011;60237;52.338;21.228;2022-10-31T08:43:55;51.10;;;17.88;;
52067;SDS011;60237;52.338;21.228;2022-10-31T08:46:21;52.40;;;16.42;;
52067;SDS011;60237;52.338;21.228;2022-10-31T08:48:48;39.33;;;14.43;;
52067;SDS011;60237;52.338;21.228;2022-10-31T08:51:17;53.80;;;16.25;;
52067;SDS011;60237;52.338;21.228;2022-10-31T08:53:44;48.58;;;16.50;;
52067;SDS011;60237;52.338;21.228;2022-10-31T08:56:33;34.03;;;14.10;;
52067;SDS011;60237;52.338;21.228;2022-10-31T08:59:03;44.58;;;16.38;;
52067;SDS011;60237;52.338;21.228;2022-10-31T09:01:45;51.03;;;16.10;;
52067;SDS011;60237;52.338;21.228;2022-10-31T09:04:13;39.60;;;14.93;;
52067;SDS011;60237;52.338;21.228;2022-10-31T09:06:39;36.75;;;14.15;;
52067;SDS011;60237;52.338;21.228;2022-10-31T09:09:21;43.53;;;14.57;;
52067;SDS011;60237;52.338;21.228;2022-10-31T09:11:47;31.40;;;13.55;;
52067;SDS011;60237;52.338;21.228;2022-10-31T09:14:17;60.92;;;15.45;;
52067;SDS011;60237;52.338;21.228;2022-10-31T09:17:09;46.63;;;15.30;;
52067;SDS011;60237;52.338;21.228;2022-10-31T09:19:54;46.38;;;14.93;;
52067;SDS011;60237;52.338;21.228;2022-10-31T09:22:25;53.30;;;17.58;;
52067;SDS011;60237;52.338;21.228;2022-10-31T09:24:52;56.55;;;16.23;;
52067;SDS011;60237;52.338;21.228;2022-10-31T09:27:18;39.25;;;15.02;;
52067;SDS011;60237;52.338;21.228;2022-10-31T09:29:46;43.42;;;14.15;;
52067;SDS011;60237;52.338;21.228;2022-10-31T09:32:13;55.97;;;15.70;;
52067;SDS011;60237;52.338;21.228;2022-10-31T09:34:44;37.42;;;13.90;;
52067;SDS011;60237;52.338;21.228;2022-10-31T09:37:14;54.13;;;15.00;;
52067;SDS011;60237;52.338;21.228;2022-10-31T09:39:41;36.75;;;13.02;;
52067;SDS011;60237;52.338;21.228;2022-10-31T09:45:07;32.00;;;12.52;;
52067;SDS011;60237;52.338;21.228;2022-10-31T09:50:44;30.63;;;12.05;;
52067;SDS011;60237;52.338;21.228;2022-10-31T09:56:00;37.22;;;12.48;;
52067;SDS011;60237;52.338;21.228;2022-10-31T09:58:28;45.83;;;13.60;;
52067;SDS011;60237;52.338;21.228;2022-10-31T10:01:00;28.15;;;11.32;;
52067;SDS011;60237;52.338;21.228;2022-10-31T10:03:42;37.17;;;12.57;;
52067;SDS011;60237;52.338;21.228;2022-10-31T10:06:32;35.70;;;12.52;;
52067;SDS011;60237;52.338;21.228;2022-10-31T10:09:22;30.60;;;11.50;;
52067;SDS011;60237;52.338;21.228;2022-10-31T10:12:16;35.83;;;10.70;;
52067;SDS011;60237;52.338;21.228;2022-10-31T10:22:55;28.75;;;8.70;;
52067;SDS011;60237;52.338;21.228;2022-10-31T10:25:28;23.90;;;9.05;;
52067;SDS011;60237;52.338;21.228;2022-10-31T10:28:08;31.65;;;10.27;;
52067;SDS011;60237;52.338;21.228;2022-10-31T10:30:41;30.10;;;9.82;;
52067;SDS011;60237;52.338;21.228;2022-10-31T10:33:12;47.72;;;11.18;;
52067;SDS011;60237;52.338;21.228;2022-10-31T10:35:47;25.30;;;9.35;;
52067;SDS011;60237;52.338;21.228;2022-10-31T10:40:48;24.20;;;8.27;;
52067;SDS011;60237;52.338;21.228;2022-10-31T10:43:19;41.42;;;9.80;;
52067;SDS011;60237;52.338;21.228;2022-10-31T10:51:47;49.22;;;12.30;;
52067;SDS011;60237;52.338;21.228;2022-10-31T10:59:48;26.33;;;8.60;;
52067;SDS011;60237;52.338;21.228;2022-10-31T11:02:18;46.33;;;11.43;;
52067;SDS011;60237;52.338;21.228;2022-10-31T11:04:52;37.65;;;10.60;;
52067;SDS011;60237;52.338;21.228;2022-10-31T11:07:20;34.15;;;9.68;;
52067;SDS011;60237;52.338;21.228;2022-10-31T11:09:46;28.58;;;8.20;;
52067;SDS011;60237;52.338;21.228;2022-10-31T11:14:53;45.38;;;9.48;;
52067;SDS011;60237;52.338;21.228;2022-10-31T11:17:36;35.38;;;7.90;;
52067;SDS011;60237;52.338;21.228;2022-10-31T11:20:20;23.73;;;7.18;;
52067;SDS011;60237;52.338;21.228;2022-10-31T11:22:48;26.35;;;7.63;;
52067;SDS011;60237;52.338;21.228;2022-10-31T11:25:21;36.03;;;9.65;;
52067;SDS011;60237;52.338;21.228;2022-10-31T11:30:30;29.85;;;8.85;;
52067;SDS011;60237;52.338;21.228;2022-10-31T11:33:01;23.33;;;7.22;;
52067;SDS011;60237;52.338;21.228;2022-10-31T11:35:28;23.33;;;7.18;;
52067;SDS011;60237;52.338;21.228;2022-10-31T11:37:56;21.65;;;7.53;;
52067;SDS011;60237;52.338;21.228;2022-10-31T11:40:25;30.58;;;8.90;;
52067;SDS011;60237;52.338;21.228;2022-10-31T11:42:53;36.58;;;10.23;;
52067;SDS011;60237;52.338;21.228;2022-10-31T11:47:51;41.90;;;10.30;;
52067;SDS011;60237;52.338;21.228;2022-10-31T11:50:26;30.05;;;9.82;;
52067;SDS011;60237;52.338;21.228;2022-10-31T11:52:53;22.88;;;8.27;;
52067;SDS011;60237;52.338;21.228;2022-10-31T11:55:31;23.95;;;8.80;;
52067;SDS011;60237;52.338;21.228;2022-10-31T11:57:58;28.52;;;9.00;;
52067;SDS011;60237;52.338;21.228;2022-10-31T12:00:29;50.45;;;11.57;;
52067;SDS011;60237;52.338;21.228;2022-10-31T12:05:35;32.97;;;10.65;;
52067;SDS011;60237;52.338;21.228;2022-10-31T12:08:03;36.05;;;9.85;;
52067;SDS011;60237;52.338;21.228;2022-10-31T12:10:32;41.65;;;11.90;;
52067;SDS011;60237;52.338;21.228;2022-10-31T12:15:32;42.85;;;11.93;;
52067;SDS011;60237;52.338;21.228;2022-10-31T12:18:22;29.35;;;10.30;;
52067;SDS011;60237;52.338;21.228;2022-10-31T12:20:56;53.03;;;13.30;;
52067;SDS011;60237;52.338;21.228;2022-10-31T12:38:55;31.60;;;11.52;;
52067;SDS011;60237;52.338;21.228;2022-10-31T12:49:03;35.25;;;11.88;;
52067;SDS011;60237;52.338;21.228;2022-10-31T12:54:54;100.28;;;17.65;;
52067;SDS011;60237;52.338;21.228;2022-10-31T12:59:37;38.20;;;12.10;;
52067;SDS011;60237;52.338;21.228;2022-10-31T13:04:40;37.47;;;12.75;;
52067;SDS011;60237;52.338;21.228;2022-10-31T13:07:12;47.30;;;13.35;;
52067;SDS011;60237;52.338;21.228;2022-10-31T13:09:45;39.33;;;13.00;;
52067;SDS011;60237;52.338;21.228;2022-10-31T13:12:17;39.38;;;12.27;;
52067;SDS011;60237;52.338;21.228;2022-10-31T13:14:51;36.30;;;12.15;;
52067;SDS011;60237;52.338;21.228;2022-10-31T13:19:53;37.97;;;12.70;;
52067;SDS011;60237;52.338;21.228;2022-10-31T13:22:22;59.10;;;16.02;;
52067;SDS011;60237;52.338;21.228;2022-10-31T13:30:20;52.22;;;14.00;;
52067;SDS011;60237;52.338;21.228;2022-10-31T13:32:49;38.33;;;12.05;;
52067;SDS011;60237;52.338;21.228;2022-10-31T13:38:32;27.40;;;10.65;;
52067;SDS011;60237;52.338;21.228;2022-10-31T13:43:16;43.67;;;12.05;;
52067;SDS011;60237;52.338;21.228;2022-10-31T13:45:48;46.90;;;13.73;;
52067;SDS011;60237;52.338;21.228;2022-10-31T13:50:54;47.58;;;11.90;;
52067;SDS011;60237;52.338;21.228;2022-10-31T13:53:21;44.53;;;13.70;;
52067;SDS011;60237;52.338;21.228;2022-10-31T13:55:49;35.67;;;14.23;;
52067;SDS011;60237;52.338;21.228;2022-10-31T13:58:23;52.63;;;12.50;;
52067;SDS011;60237;52.338;21.228;2022-10-31T14:01:24;37.33;;;12.10;;
52067;SDS011;60237;52.338;21.228;2022-10-31T14:03:44;44.27;;;10.97;;
52067;SDS011;60237;52.338;21.228;2022-10-31T14:07:14;71.50;;;13.50;;
52067;SDS011;60237;52.338;21.228;2022-10-31T14:11:57;45.85;;;11.45;;
52067;SDS011;60237;52.338;21.228;2022-10-31T14:14:28;34.05;;;9.25;;
52067;SDS011;60237;52.338;21.228;2022-10-31T14:16:56;29.83;;;9.80;;
52067;SDS011;60237;52.338;21.228;2022-10-31T14:19:23;45.88;;;11.18;;
52067;SDS011;60237;52.338;21.228;2022-10-31T14:21:50;38.63;;;9.70;;
52067;SDS011;60237;52.338;21.228;2022-10-31T14:29:21;32.72;;;9.98;;
52067;SDS011;60237;52.338;21.228;2022-10-31T14:34:18;41.90;;;11.85;;
52067;SDS011;60237;52.338;21.228;2022-10-31T14:44:51;29.88;;;10.73;;
52067;SDS011;60237;52.338;21.228;2022-10-31T14:47:21;36.65;;;11.13;;
52067;SDS011;60237;52.338;21.228;2022-10-31T14:50:03;45.58;;;11.60;;
52067;SDS011;60237;52.338;21.228;2022-10-31T14:52:30;31.05;;;9.98;;
52067;SDS011;60237;52.338;21.228;2022-10-31T14:54:57;47.28;;;12.25;;
52067;SDS011;60237;52.338;21.228;2022-10-31T14:57:27;46.00;;;13.93;;
52067;SDS011;60237;52.338;21.228;2022-10-31T14:59:55;27.17;;;11.25;;
52067;SDS011;60237;52.338;21.228;2022-10-31T15:02:34;49.78;;;12.82;;
52067;SDS011;60237;52.338;21.228;2022-10-31T15:05:09;36.60;;;12.52;;
52067;SDS011;60237;52.338;21.228;2022-10-31T15:07:47;45.25;;;14.27;;
52067;SDS011;60237;52.338;21.228;2022-10-31T15:10:21;54.90;;;18.52;;
52067;SDS011;60237;52.338;21.228;2022-10-31T15:12:49;54.65;;;18.55;;
52067;SDS011;60237;52.338;21.228;2022-10-31T15:15:19;44.10;;;15.98;;
52067;SDS011;60237;52.338;21.228;2022-10-31T15:17:53;44.47;;;15.80;;
52067;SDS011;60237;52.338;21.228;2022-10-31T15:20:22;62.80;;;17.30;;
52067;SDS011;60237;52.338;21.228;2022-10-31T15:22:49;46.50;;;16.90;;
52067;SDS011;60237;52.338;21.228;2022-10-31T15:25:17;38.72;;;14.57;;
52067;SDS011;60237;52.338;21.228;2022-10-31T15:27:43;55.30;;;16.70;;
52067;SDS011;60237;52.338;21.228;2022-10-31T15:30:16;41.70;;;15.05;;
52067;SDS011;60237;52.338;21.228;2022-10-31T15:32:44;50.45;;;15.60;;
52067;SDS011;60237;52.338;21.228;2022-10-31T15:35:29;38.70;;;15.25;;
52067;SDS011;60237;52.338;21.228;2022-10-31T15:40:24;50.10;;;18.58;;
52067;SDS011;60237;52.338;21.228;2022-10-31T15:42:55;45.03;;;17.75;;
52067;SDS011;60237;52.338;21.228;2022-10-31T15:45:23;75.43;;;32.42;;
52067;SDS011;60237;52.338;21.228;2022-10-31T15:47:57;67.40;;;26.40;;
52067;SDS011;60237;52.338;21.228;2022-10-31T15:50:28;52.90;;;21.10;;
52067;SDS011;60237;52.338;21.228;2022-10-31T15:52:55;55.15;;;19.08;;
52067;SDS011;60237;52.338;21.228;2022-10-31T15:55:22;53.78;;;20.70;;
52067;SDS011;60237;52.338;21.228;2022-10-31T15:57:51;56.85;;;26.15;;
52067;SDS011;60237;52.338;21.228;2022-10-31T16:00:28;69.05;;;26.40;;
52067;SDS011;60237;52.338;21.228;2022-10-31T16:05:44;59.22;;;24.75;;
52067;SDS011;60237;52.338;21.228;2022-10-31T16:10:59;53.05;;;25.40;;
52067;SDS011;60237;52.338;21.228;2022-10-31T16:13:31;55.70;;;25.85;;
52067;SDS011;60237;52.338;21.228;2022-10-31T16:16:03;52.05;;;20.52;;
52067;SDS011;60237;52.338;21.228;2022-10-31T16:18:51;53.70;;;22.75;;
52067;SDS011;60237;52.338;21.228;2022-10-31T16:21:28;64.70;;;23.65;;
52067;SDS011;60237;52.338;21.228;2022-10-31T16:24:00;54.85;;;24.17;;
52067;SDS011;60237;52.338;21.228;2022-10-31T16:26:31;57.33;;;25.13;;
52067;SDS011;60237;52.338;21.228;2022-10-31T16:28:58;69.63;;;23.60;;
52067;SDS011;60237;52.338;21.228;2022-10-31T16:31:35;73.75;;;27.42;;
52067;SDS011;60237;52.338;21.228;2022-10-31T16:34:17;78.97;;;25.20;;
52067;SDS011;60237;52.338;21.228;2022-10-31T16:36:52;70.15;;;25.35;;
52067;SDS011;60237;52.338;21.228;2022-10-31T16:39:18;84.05;;;26.35;;
52067;SDS011;60237;52.338;21.228;2022-10-31T16:41:45;69.63;;;27.02;;
52067;SDS011;60237;52.338;21.228;2022-10-31T16:44:14;74.57;;;27.80;;
52067;SDS011;60237;52.338;21.228;2022-10-31T16:46:42;66.97;;;25.08;;
52067;SDS011;60237;52.338;21.228;2022-10-31T16:49:09;69.10;;;27.08;;
52067;SDS011;60237;52.338;21.228;2022-10-31T16:51:35;78.60;;;27.63;;
52067;SDS011;60237;52.338;21.228;2022-10-31T16:54:02;67.35;;;27.38;;
52067;SDS011;60237;52.338;21.228;2022-10-31T16:56:31;99.35;;;39.35;;
52067;SDS011;60237;52.338;21.228;2022-10-31T16:59:00;129.27;;;50.40;;
52067;SDS011;60237;52.338;21.228;2022-10-31T17:01:27;107.30;;;47.25;;